Time;durP1;ratioP1;P1;durP2;ratioP2;P2;SDS_P1;SDS_P2;PMS_P1;PMS_P2;Temp;Humidity;BMP_temperature;BMP_pressure;BME280_temperature;BME280_humidity;BME280_pressure;Samples;Min_cycle;Max_cycle;Signal;HPM_P1;HPM_P2
2023/02/02 00:01:29;;;;;;;120.03;77.73;;;;;;;;;;5052911;28;20045;-71
2023/02/02 00:03:55;;;;;;;122.80;78.50;;;;;;;;;;5052942;28;20032;-71
2023/02/02 00:06:23;;;;;;;120.53;77.83;;;;;;;;;;5052983;28;20150;-71
2023/02/02 00:08:49;;;;;;;118.53;77.60;;;;;;;;;;5053065;28;20029;-71
2023/02/02 00:11:16;;;;;;;120.90;79.77;;;;;;;;;;5052746;28;20112;-71
2023/02/02 00:13:42;;;;;;;123.23;79.17;;;;;;;;;;5052882;28;20025;-71
2023/02/02 00:16:26;;;;;;;124.27;80.70;;;;;;;;;;5052603;28;20037;-71
2023/02/02 00:18:54;;;;;;;121.00;78.43;;;;;;;;;;5052710;28;20505;-71
2023/02/02 00:21:20;;;;;;;151.53;86.90;;;;;;;;;;5052744;28;20388;-71
2023/02/02 00:23:46;;;;;;;134.33;81.93;;;;;;;;;;5052807;28;20033;-71
2023/02/02 00:26:12;;;;;;;127.97;81.17;;;;;;;;;;5052837;28;20102;-71
2023/02/02 00:28:38;;;;;;;132.07;79.43;;;;;;;;;;5052434;28;20033;-71
2023/02/02 00:31:05;;;;;;;121.07;76.57;;;;;;;;;;5052448;28;20055;-71
2023/02/02 00:33:31;;;;;;;118.17;76.77;;;;;;;;;;5052695;28;20033;-71
2023/02/02 00:35:57;;;;;;;118.67;78.53;;;;;;;;;;5052579;28;20522;-71
2023/02/02 00:38:23;;;;;;;111.30;73.47;;;;;;;;;;5052679;28;20029;-71
2023/02/02 00:40:49;;;;;;;119.97;76.20;;;;;;;;;;5052600;28;20048;-71
2023/02/02 00:43:15;;;;;;;112.50;73.33;;;;;;;;;;5051927;28;20072;-71
2023/02/02 00:45:41;;;;;;;114.07;74.27;;;;;;;;;;5034619;28;20040;-71
2023/02/02 00:48:09;;;;;;;113.07;74.17;;;;;;;;;;5052620;28;20033;-71
2023/02/02 00:50:36;;;;;;;117.40;74.20;;;;;;;;;;5052525;28;20032;-72
2023/02/02 00:53:02;;;;;;;118.73;73.57;;;;;;;;;;5034632;28;20033;-71
2023/02/02 00:55:28;;;;;;;113.60;72.87;;;;;;;;;;5052276;28;20053;-71
2023/02/02 00:57:54;;;;;;;109.70;71.47;;;;;;;;;;5052451;28;20045;-71
2023/02/02 01:00:23;;;;;;;112.47;72.30;;;;;;;;;;5034138;28;20049;-71
2023/02/02 01:02:50;;;;;;;108.97;71.57;;;;;;;;;;5052425;28;20044;-71
2023/02/02 01:05:16;;;;;;;112.13;71.40;;;;;;;;;;5052316;28;20044;-71
2023/02/02 01:07:42;;;;;;;99.47;68.20;;;;;;;;;;5051227;28;20518;-72
2023/02/02 01:10:12;;;;;;;110.13;68.77;;;;;;;;;;5049722;28;20061;-71
2023/02/02 01:12:38;;;;;;;100.77;67.07;;;;;;;;;;5049704;28;20052;-71
2023/02/02 01:15:05;;;;;;;101.87;65.73;;;;;;;;;;5052088;28;20035;-71
2023/02/02 01:17:31;;;;;;;106.43;67.03;;;;;;;;;;5052281;28;20034;-71
2023/02/02 01:19:57;;;;;;;101.83;64.40;;;;;;;;;;5052347;28;20075;-71
2023/02/02 01:22:23;;;;;;;117.20;65.13;;;;;;;;;;5052087;28;20102;-71
2023/02/02 01:24:49;;;;;;;108.53;61.33;;;;;;;;;;5052263;28;20514;-71
2023/02/02 01:27:15;;;;;;;90.07;56.57;;;;;;;;;;5051927;28;20067;-71
2023/02/02 01:29:42;;;;;;;97.57;58.70;;;;;;;;;;5052125;28;20026;-71
2023/02/02 01:32:08;;;;;;;97.53;59.17;;;;;;;;;;5052083;28;20045;-71
2023/02/02 01:34:34;;;;;;;88.60;58.10;;;;;;;;;;5049003;28;20036;-71
2023/02/02 01:37:00;;;;;;;103.43;62.13;;;;;;;;;;5049325;28;20048;-71
2023/02/02 01:39:26;;;;;;;107.27;67.53;;;;;;;;;;5032295;28;20032;-71
2023/02/02 01:41:52;;;;;;;106.47;67.83;;;;;;;;;;5033803;28;20048;-71
2023/02/02 01:44:37;;;;;;;109.93;68.47;;;;;;;;;;5051773;28;20037;-71
2023/02/02 01:47:03;;;;;;;108.93;65.90;;;;;;;;;;5051694;28;20030;-71
2023/02/02 01:49:29;;;;;;;99.43;64.17;;;;;;;;;;5051834;28;20068;-71
2023/02/02 01:51:59;;;;;;;99.00;63.67;;;;;;;;;;5051865;28;20041;-71
2023/02/02 01:54:36;;;;;;;100.23;65.07;;;;;;;;;;5054216;28;20029;-71
2023/02/02 01:57:05;;;;;;;104.17;65.23;;;;;;;;;;5054666;28;20029;-71
2023/02/02 01:59:32;;;;;;;100.40;67.53;;;;;;;;;;5055297;28;20033;-71
2023/02/02 02:01:58;;;;;;;104.40;65.37;;;;;;;;;;5055623;28;21116;-71
2023/02/02 02:04:25;;;;;;;111.97;68.73;;;;;;;;;;5054618;28;20079;-71
2023/02/02 02:06:52;;;;;;;105.40;67.30;;;;;;;;;;5054671;28;20044;-71
2023/02/02 02:09:19;;;;;;;101.07;66.77;;;;;;;;;;5054854;28;20033;-71
2023/02/02 02:11:45;;;;;;;104.43;68.37;;;;;;;;;;5054744;28;20045;-71
2023/02/02 02:17:15;;;;;;;106.30;68.03;;;;;;;;;;5055498;28;20067;-71
2023/02/02 02:28:38;;;;;;;105.63;67.20;;;;;;;;;;5054976;28;20107;-71
2023/02/02 02:31:13;;;;;;;107.00;68.27;;;;;;;;;;5054767;28;20041;-71
2023/02/02 02:33:53;;;;;;;106.03;66.87;;;;;;;;;;5054304;28;20044;-71
2023/02/02 02:36:40;;;;;;;107.03;67.20;;;;;;;;;;5054630;28;20036;-71
2023/02/02 02:39:12;;;;;;;103.57;64.90;;;;;;;;;;5054406;28;20043;-71
2023/02/02 02:41:44;;;;;;;112.25;68.15;;;;;;;;;;5054364;28;20033;-71
2023/02/02 02:44:11;;;;;;;102.93;66.85;;;;;;;;;;5054763;28;20116;-71
2023/02/02 02:46:38;;;;;;;102.37;65.00;;;;;;;;;;5054578;28;20037;-71
2023/02/02 02:49:07;;;;;;;105.23;66.13;;;;;;;;;;5054282;28;20487;-71
2023/02/02 02:51:45;;;;;;;103.73;63.67;;;;;;;;;;5054321;28;20087;-71
2023/02/02 02:54:32;;;;;;;103.17;65.17;;;;;;;;;;5054559;28;20064;-71
2023/02/02 02:57:07;;;;;;;93.63;61.33;;;;;;;;;;5054590;28;20044;-71
2023/02/02 02:59:33;;;;;;;101.00;65.20;;;;;;;;;;5054071;28;20037;-71
2023/02/02 03:02:17;;;;;;;108.40;66.33;;;;;;;;;;5054507;28;20036;-71
2023/02/02 03:04:59;;;;;;;108.60;65.83;;;;;;;;;;5053710;28;20495;-71
2023/02/02 03:07:35;;;;;;;100.87;65.17;;;;;;;;;;5036100;28;20033;-71
2023/02/02 03:10:02;;;;;;;107.57;65.87;;;;;;;;;;5054194;28;20060;-71
2023/02/02 03:12:28;;;;;;;113.43;67.80;;;;;;;;;;5054086;28;20073;-71
2023/02/02 03:14:54;;;;;;;104.70;66.03;;;;;;;;;;5035839;28;20035;-71
2023/02/02 03:17:20;;;;;;;114.13;69.50;;;;;;;;;;5054124;28;20044;-71
2023/02/02 03:19:46;;;;;;;118.23;71.03;;;;;;;;;;5053903;28;20087;-71
2023/02/02 03:22:12;;;;;;;114.77;70.73;;;;;;;;;;5053994;28;20090;-71
2023/02/02 03:24:38;;;;;;;118.93;69.70;;;;;;;;;;5053972;28;20064;-71
2023/02/02 03:27:04;;;;;;;109.43;67.60;;;;;;;;;;5053924;28;20033;-71
2023/02/02 03:29:30;;;;;;;110.63;67.10;;;;;;;;;;5053863;28;20037;-71
2023/02/02 03:31:56;;;;;;;99.57;64.10;;;;;;;;;;5053688;28;20103;-71
2023/02/02 03:34:22;;;;;;;102.20;64.63;;;;;;;;;;5053351;28;20033;-71
2023/02/02 03:36:48;;;;;;;103.43;62.03;;;;;;;;;;5053467;28;20044;-71
2023/02/02 03:39:14;;;;;;;108.97;64.47;;;;;;;;;;5053447;28;20033;-71
2023/02/02 03:41:41;;;;;;;103.23;64.97;;;;;;;;;;5053573;28;20155;-71
2023/02/02 03:44:07;;;;;;;100.13;63.13;;;;;;;;;;5053711;28;20044;-71
2023/02/02 03:46:34;;;;;;;99.57;61.20;;;;;;;;;;5053659;28;20033;-71
2023/02/02 03:49:00;;;;;;;99.57;61.30;;;;;;;;;;5053255;28;20053;-71
2023/02/02 03:51:26;;;;;;;101.03;62.50;;;;;;;;;;5052937;28;20064;-71
2023/02/02 03:53:52;;;;;;;104.13;64.50;;;;;;;;;;5053365;28;20039;-71
2023/02/02 03:56:18;;;;;;;105.47;63.83;;;;;;;;;;5053243;28;20421;-71
2023/02/02 03:58:46;;;;;;;106.67;65.63;;;;;;;;;;5053266;28;20025;-71
2023/02/02 04:01:13;;;;;;;106.77;66.47;;;;;;;;;;5053075;28;20049;-71
2023/02/02 04:03:39;;;;;;;109.47;66.87;;;;;;;;;;5053164;28;20029;-71
2023/02/02 04:06:06;;;;;;;108.53;65.80;;;;;;;;;;5053034;28;20111;-71
2023/02/02 04:08:32;;;;;;;93.63;61.37;;;;;;;;;;5052990;28;20029;-71
2023/02/02 04:10:59;;;;;;;101.67;64.70;;;;;;;;;;5053409;28;20124;-71
2023/02/02 04:13:25;;;;;;;107.57;62.90;;;;;;;;;;5053149;28;20397;-71
2023/02/02 04:15:59;;;;;;;105.73;65.07;;;;;;;;;;5052893;28;20033;-71
2023/02/02 04:18:26;;;;;;;118.67;65.70;;;;;;;;;;5052033;28;20035;-71
2023/02/02 04:21:01;;;;;;;106.23;66.10;;;;;;;;;;5052794;28;20032;-71
2023/02/02 04:23:28;;;;;;;104.77;63.27;;;;;;;;;;5052815;28;20029;-71
2023/02/02 04:25:54;;;;;;;101.93;63.87;;;;;;;;;;5052805;28;20116;-71
2023/02/02 04:28:22;;;;;;;101.87;64.07;;;;;;;;;;5052773;28;20033;-71
2023/02/02 04:30:48;;;;;;;105.07;64.47;;;;;;;;;;5052858;28;20438;-71
2023/02/02 04:33:14;;;;;;;109.10;67.20;;;;;;;;;;5052403;28;20033;-71
2023/02/02 04:35:42;;;;;;;107.33;63.57;;;;;;;;;;5052532;28;20048;-71
2023/02/02 04:38:08;;;;;;;106.63;64.70;;;;;;;;;;5052458;28;20029;-71
2023/02/02 04:40:34;;;;;;;104.43;64.63;;;;;;;;;;5052320;28;20041;-71
2023/02/02 04:43:00;;;;;;;109.50;68.70;;;;;;;;;;5052514;28;20048;-71
2023/02/02 04:45:26;;;;;;;109.10;66.47;;;;;;;;;;5052656;28;20037;-71
2023/02/02 04:47:52;;;;;;;102.43;66.03;;;;;;;;;;5052365;28;20541;-71
2023/02/02 04:50:18;;;;;;;106.60;66.87;;;;;;;;;;5052660;28;20064;-71
2023/02/02 04:52:44;;;;;;;97.83;63.73;;;;;;;;;;5052578;28;20087;-71
2023/02/02 04:55:10;;;;;;;101.30;64.23;;;;;;;;;;5031147;28;20455;-71
2023/02/02 04:57:36;;;;;;;100.87;62.60;;;;;;;;;;5032306;28;20116;-71
2023/02/02 05:00:03;;;;;;;102.47;64.83;;;;;;;;;;5032283;28;20050;-71
2023/02/02 05:02:29;;;;;;;102.07;65.13;;;;;;;;;;5032431;28;20044;-71
2023/02/02 05:04:55;;;;;;;95.47;61.03;;;;;;;;;;5032565;28;20064;-71
2023/02/02 05:07:21;;;;;;;109.33;66.10;;;;;;;;;;5032357;28;20034;-71
2023/02/02 05:09:47;;;;;;;101.60;64.63;;;;;;;;;;5032586;28;20056;-71
2023/02/02 05:12:13;;;;;;;98.40;63.47;;;;;;;;;;5032322;28;20041;-71
2023/02/02 05:14:39;;;;;;;103.30;62.77;;;;;;;;;;5031247;28;20083;-71
2023/02/02 05:17:05;;;;;;;102.10;61.77;;;;;;;;;;5032326;28;20484;-71
2023/02/02 05:19:31;;;;;;;100.07;62.23;;;;;;;;;;5032495;28;20164;-71
2023/02/02 05:21:57;;;;;;;94.67;61.17;;;;;;;;;;5032266;28;20365;-71
2023/02/02 05:24:23;;;;;;;97.83;63.40;;;;;;;;;;5032320;28;20034;-71
2023/02/02 05:26:51;;;;;;;98.07;62.77;;;;;;;;;;5032267;28;20373;-71
2023/02/02 05:29:17;;;;;;;100.87;62.00;;;;;;;;;;5033316;28;20036;-71
2023/02/02 05:31:43;;;;;;;104.57;62.57;;;;;;;;;;5034949;28;20045;-71
2023/02/02 05:34:10;;;;;;;98.20;63.97;;;;;;;;;;5036184;28;20041;-71
2023/02/02 05:36:36;;;;;;;101.67;63.97;;;;;;;;;;5034872;28;20033;-71
2023/02/02 05:39:04;;;;;;;110.83;67.60;;;;;;;;;;5036065;28;20096;-71
2023/02/02 05:41:30;;;;;;;114.57;71.03;;;;;;;;;;5035972;28;20113;-71
2023/02/02 05:43:58;;;;;;;117.00;71.10;;;;;;;;;;5035932;28;20472;-71
2023/02/02 05:46:24;;;;;;;113.73;70.97;;;;;;;;;;5035859;28;20033;-71
2023/02/02 05:48:50;;;;;;;115.93;72.17;;;;;;;;;;5035962;28;20037;-71
2023/02/02 05:51:21;;;;;;;103.00;64.90;;;;;;;;;;5035777;28;20056;-71
2023/02/02 05:53:47;;;;;;;103.20;68.47;;;;;;;;;;5035752;28;20033;-71
2023/02/02 05:56:14;;;;;;;103.60;63.87;;;;;;;;;;5035314;28;20037;-71
2023/02/02 05:58:41;;;;;;;96.67;64.80;;;;;;;;;;5035540;28;20029;-71
2023/02/02 06:01:07;;;;;;;157.63;93.10;;;;;;;;;;5035336;28;20052;-71
2023/02/02 06:03:33;;;;;;;145.87;90.33;;;;;;;;;;5035542;28;20037;-71
2023/02/02 06:05:59;;;;;;;123.03;75.37;;;;;;;;;;5035658;28;20033;-71
2023/02/02 06:08:25;;;;;;;112.97;70.03;;;;;;;;;;5035320;28;20029;-71
2023/02/02 06:10:51;;;;;;;96.60;62.67;;;;;;;;;;5035188;28;20033;-71
2023/02/02 06:13:17;;;;;;;103.30;64.10;;;;;;;;;;5035604;28;20037;-71
2023/02/02 06:15:44;;;;;;;98.63;64.07;;;;;;;;;;5035245;28;20088;-71
2023/02/02 06:18:10;;;;;;;101.93;64.93;;;;;;;;;;5035166;28;20044;-71
2023/02/02 06:20:36;;;;;;;110.27;64.43;;;;;;;;;;5035354;28;20037;-71
2023/02/02 06:23:02;;;;;;;107.90;64.47;;;;;;;;;;5034786;28;20420;-71
2023/02/02 06:25:28;;;;;;;117.37;63.73;;;;;;;;;;5035026;28;20107;-71
2023/02/02 06:27:55;;;;;;;100.27;62.13;;;;;;;;;;5033635;28;20037;-71
2023/02/02 06:30:22;;;;;;;98.83;61.00;;;;;;;;;;5035016;28;20061;-71
2023/02/02 06:32:48;;;;;;;97.20;62.30;;;;;;;;;;5034930;28;20083;-71
2023/02/02 06:35:14;;;;;;;98.37;61.77;;;;;;;;;;5034932;28;20034;-71
2023/02/02 06:37:40;;;;;;;101.47;61.93;;;;;;;;;;5034626;28;20041;-71
2023/02/02 06:40:07;;;;;;;97.60;60.80;;;;;;;;;;5033670;28;20037;-71
2023/02/02 06:42:33;;;;;;;96.37;59.87;;;;;;;;;;5035026;28;20065;-71
2023/02/02 06:44:59;;;;;;;98.07;62.60;;;;;;;;;;5034667;28;20052;-71
2023/02/02 06:47:25;;;;;;;97.53;61.17;;;;;;;;;;5034012;28;20041;-70
2023/02/02 06:49:52;;;;;;;99.73;60.87;;;;;;;;;;5034429;28;20073;-70
2023/02/02 06:52:18;;;;;;;95.57;60.40;;;;;;;;;;5034217;28;20037;-70
2023/02/02 06:54:44;;;;;;;103.17;63.10;;;;;;;;;;5034323;28;20029;-71
2023/02/02 06:57:10;;;;;;;97.80;60.23;;;;;;;;;;5034022;28;20029;-71
2023/02/02 06:59:37;;;;;;;97.87;60.60;;;;;;;;;;5032849;28;20109;-71
2023/02/02 07:02:03;;;;;;;98.50;63.20;;;;;;;;;;5034349;28;20443;-71
2023/02/02 07:04:29;;;;;;;99.10;60.17;;;;;;;;;;5034174;28;20034;-71
2023/02/02 07:06:55;;;;;;;97.70;61.77;;;;;;;;;;5034036;28;20030;-71
2023/02/02 07:09:21;;;;;;;105.50;62.33;;;;;;;;;;5034243;28;20030;-71
2023/02/02 07:11:47;;;;;;;103.50;62.90;;;;;;;;;;5033650;28;20080;-71
2023/02/02 07:14:13;;;;;;;94.70;59.83;;;;;;;;;;5033899;28;20045;-71
2023/02/02 07:16:39;;;;;;;103.00;61.47;;;;;;;;;;5033278;28;20034;-71
2023/02/02 07:19:05;;;;;;;99.23;60.73;;;;;;;;;;5032565;28;20056;-71
2023/02/02 07:21:34;;;;;;;94.97;60.80;;;;;;;;;;5033617;28;20026;-71
2023/02/02 07:24:04;;;;;;;95.47;58.83;;;;;;;;;;5032039;28;20029;-70
2023/02/02 07:26:31;;;;;;;102.50;62.37;;;;;;;;;;5033302;28;20128;-70
2023/02/02 07:28:57;;;;;;;102.27;62.13;;;;;;;;;;5033585;28;20026;-71
2023/02/02 07:31:24;;;;;;;92.60;59.90;;;;;;;;;;5032155;28;20045;-71
2023/02/02 07:33:50;;;;;;;93.87;61.63;;;;;;;;;;5033081;28;20484;-71
2023/02/02 07:36:18;;;;;;;98.27;61.33;;;;;;;;;;5032620;28;20048;-71
2023/02/02 07:38:45;;;;;;;107.37;62.97;;;;;;;;;;5032846;28;20044;-71
2023/02/02 07:41:11;;;;;;;97.13;61.80;;;;;;;;;;5032972;28;20034;-71
2023/02/02 07:43:37;;;;;;;107.90;63.13;;;;;;;;;;5031926;28;20026;-71
2023/02/02 07:46:06;;;;;;;100.33;62.07;;;;;;;;;;5032944;28;20101;-71
2023/02/02 07:48:33;;;;;;;101.53;64.57;;;;;;;;;;5032676;28;20033;-71
2023/02/02 07:51:03;;;;;;;104.23;64.83;;;;;;;;;;5032704;28;20064;-71
2023/02/02 07:53:29;;;;;;;111.23;66.43;;;;;;;;;;5031777;28;20041;-71
2023/02/02 07:56:07;;;;;;;117.63;67.73;;;;;;;;;;5033153;28;20112;-71
2023/02/02 07:58:33;;;;;;;102.73;65.93;;;;;;;;;;5032518;28;20117;-71
2023/02/02 08:01:00;;;;;;;108.53;70.43;;;;;;;;;;5032425;28;20073;-71
2023/02/02 08:03:26;;;;;;;126.77;79.20;;;;;;;;;;5032835;28;20044;-71
2023/02/02 08:05:53;;;;;;;130.97;81.53;;;;;;;;;;5032725;28;20041;-70
2023/02/02 08:08:19;;;;;;;130.03;81.53;;;;;;;;;;5032547;28;20034;-71
2023/02/02 08:10:48;;;;;;;124.10;79.07;;;;;;;;;;5032269;28;20072;-71
2023/02/02 08:13:15;;;;;;;122.30;76.17;;;;;;;;;;5031319;28;20037;-71
2023/02/02 08:15:41;;;;;;;119.97;74.77;;;;;;;;;;5032457;28;20029;-71
2023/02/02 08:18:07;;;;;;;115.53;71.80;;;;;;;;;;5031216;28;20038;-71
2023/02/02 08:20:33;;;;;;;121.20;70.93;;;;;;;;;;5032436;28;20053;-71
2023/02/02 08:22:59;;;;;;;112.57;68.67;;;;;;;;;;5032532;28;20037;-71
2023/02/02 08:25:26;;;;;;;100.80;64.17;;;;;;;;;;5031336;28;20484;-71
2023/02/02 08:27:57;;;;;;;105.17;63.97;;;;;;;;;;5032221;28;20030;-71
2023/02/02 08:30:23;;;;;;;102.30;62.90;;;;;;;;;;5032438;28;20120;-71
2023/02/02 08:32:50;;;;;;;100.10;61.93;;;;;;;;;;5032190;28;20056;-71
2023/02/02 08:35:17;;;;;;;103.10;60.33;;;;;;;;;;5032191;28;20044;-71
2023/02/02 08:37:44;;;;;;;99.80;62.43;;;;;;;;;;5032075;28;20036;-71
2023/02/02 08:40:10;;;;;;;101.03;59.73;;;;;;;;;;5032101;28;20121;-71
2023/02/02 08:42:36;;;;;;;89.57;56.40;;;;;;;;;;5031889;28;20088;-71
2023/02/02 08:45:02;;;;;;;103.57;59.30;;;;;;;;;;5032031;28;20068;-71
2023/02/02 08:47:29;;;;;;;93.43;58.27;;;;;;;;;;5031987;28;20025;-71
2023/02/02 08:49:55;;;;;;;103.47;60.93;;;;;;;;;;5032213;28;20113;-71
2023/02/02 08:52:21;;;;;;;100.33;60.20;;;;;;;;;;5032119;28;20042;-71
2023/02/02 08:54:47;;;;;;;90.60;58.67;;;;;;;;;;5032082;28;20041;-71
2023/02/02 08:57:14;;;;;;;91.37;58.97;;;;;;;;;;5031231;28;20040;-71
2023/02/02 08:59:40;;;;;;;102.50;63.03;;;;;;;;;;5031811;28;20033;-70
2023/02/02 09:02:06;;;;;;;90.17;59.90;;;;;;;;;;5032067;28;20112;-71
2023/02/02 09:04:33;;;;;;;98.83;60.93;;;;;;;;;;5034834;28;20156;-71
2023/02/02 09:07:01;;;;;;;99.57;61.93;;;;;;;;;;5036046;28;20037;-71
2023/02/02 09:09:27;;;;;;;100.20;62.17;;;;;;;;;;5036280;28;20112;-72
2023/02/02 09:11:53;;;;;;;100.03;62.17;;;;;;;;;;5035822;28;20407;-71
2023/02/02 09:14:19;;;;;;;99.77;61.13;;;;;;;;;;5036293;28;20041;-71
2023/02/02 09:16:45;;;;;;;95.23;58.87;;;;;;;;;;5036197;28;20042;-72
2023/02/02 09:19:11;;;;;;;97.63;59.93;;;;;;;;;;5035906;28;20061;-72
2023/02/02 09:21:37;;;;;;;100.03;62.13;;;;;;;;;;5033473;28;20033;-71
2023/02/02 09:24:11;;;;;;;100.10;60.23;;;;;;;;;;5035567;28;20037;-71
2023/02/02 09:26:39;;;;;;;101.30;63.30;;;;;;;;;;5035642;28;20033;-71
2023/02/02 09:29:05;;;;;;;95.50;60.00;;;;;;;;;;5034445;28;20399;-71
2023/02/02 09:31:35;;;;;;;97.90;61.70;;;;;;;;;;5035779;28;20513;-71
2023/02/02 09:34:02;;;;;;;99.30;61.13;;;;;;;;;;5035862;28;20053;-72
2023/02/02 09:36:28;;;;;;;93.27;61.20;;;;;;;;;;5036137;28;20124;-71
2023/02/02 09:38:54;;;;;;;93.23;62.73;;;;;;;;;;5036133;28;20033;-71
2023/02/02 09:41:51;;;;;;;95.80;59.37;;;;;;;;;;5035245;28;20372;-71
2023/02/02 09:44:29;;;;;;;97.03;60.23;;;;;;;;;;5035153;28;20042;-71
2023/02/02 09:46:55;;;;;;;89.33;58.83;;;;;;;;;;5035200;28;20048;-71
2023/02/02 09:49:27;;;;;;;98.07;62.63;;;;;;;;;;5035790;28;20044;-71
2023/02/02 09:51:59;;;;;;;91.38;60.13;;;;;;;;;;5035813;28;20112;-71
2023/02/02 09:54:34;;;;;;;90.97;59.90;;;;;;;;;;5036078;28;20038;-71
2023/02/02 09:57:02;;;;;;;90.77;61.53;;;;;;;;;;5036032;28;20038;-71
2023/02/02 09:59:36;;;;;;;95.10;60.53;;;;;;;;;;5035657;28;20112;-71
2023/02/02 10:02:07;;;;;;;91.67;61.53;;;;;;;;;;5035712;28;20038;-71
2023/02/02 10:04:35;;;;;;;91.30;60.97;;;;;;;;;;5035843;28;20033;-71
2023/02/02 10:07:08;;;;;;;89.60;60.43;;;;;;;;;;5035557;28;20033;-72
2023/02/02 10:09:34;;;;;;;;;;;;;;;;;;5036171;28;20068;-71
2023/02/02 10:12:16;;;;;;;91.30;59.40;;;;;;;;;;5035641;28;20363;-71
2023/02/02 10:14:47;;;;;;;98.60;65.07;;;;;;;;;;5035591;28;20030;-72
2023/02/02 10:17:31;;;;;;;99.63;62.60;;;;;;;;;;5035796;28;20041;-72
2023/02/02 10:20:01;;;;;;;104.33;67.93;;;;;;;;;;5035561;28;20033;-71
2023/02/02 10:22:29;;;;;;;106.40;66.50;;;;;;;;;;5035258;28;20113;-71
2023/02/02 10:24:57;;;;;;;106.67;67.87;;;;;;;;;;5035359;28;20040;-71
2023/02/02 10:27:29;;;;;;;107.23;67.60;;;;;;;;;;5035358;28;20491;-72
2023/02/02 10:29:59;;;;;;;103.63;68.28;;;;;;;;;;5035230;28;20033;-71
2023/02/02 10:32:35;;;;;;;104.27;68.13;;;;;;;;;;5034007;28;20132;-71
2023/02/02 10:35:10;;;;;;;102.17;66.97;;;;;;;;;;5035120;28;20057;-71
2023/02/02 10:37:50;;;;;;;100.90;67.20;;;;;;;;;;5035140;28;20033;-71
2023/02/02 10:40:19;;;;;;;101.50;67.03;;;;;;;;;;5035189;28;20025;-71
2023/02/02 10:43:44;;;;;;;103.90;66.13;;;;;;;;;;5035230;28;20549;-71
2023/02/02 10:45:35;;;;;;;99.27;67.23;;;;;;;;;;5034539;28;20051;-72
2023/02/02 10:48:02;;;;;;;99.73;65.97;;;;;;;;;;5035080;28;20040;-71
2023/02/02 10:50:28;;;;;;;98.17;64.03;;;;;;;;;;5035096;28;20041;-71
2023/02/02 10:52:56;;;;;;;92.67;63.33;;;;;;;;;;5034713;28;20045;-71
2023/02/02 10:55:36;;;;;;;94.47;63.30;;;;;;;;;;5034728;28;20029;-72
2023/02/02 10:58:11;;;;;;;91.00;62.93;;;;;;;;;;5033452;28;20475;-72
2023/02/02 11:00:41;;;;;;;96.33;62.00;;;;;;;;;;5034435;28;20041;-72
2023/02/02 11:03:09;;;;;;;91.70;63.83;;;;;;;;;;5034426;28;20037;-71
2023/02/02 11:08:23;;;;;;;94.53;64.67;;;;;;;;;;5034857;28;20092;-71
2023/02/02 11:10:51;;;;;;;96.00;63.97;;;;;;;;;;5034355;28;20087;-71
2023/02/02 11:13:23;;;;;;;94.70;63.00;;;;;;;;;;5034071;28;20041;-72
2023/02/02 11:15:49;;;;;;;95.85;63.42;;;;;;;;;;5034226;28;20029;-71
2023/02/02 11:18:29;;;;;;;96.87;64.90;;;;;;;;;;5032978;28;20060;-72
2023/02/02 11:20:55;;;;;;;97.30;63.37;;;;;;;;;;5034374;28;20061;-72
2023/02/02 11:23:21;;;;;;;92.77;60.30;;;;;;;;;;5035493;28;20432;-72
2023/02/02 11:25:57;;;;;;;98.60;67.77;;;;;;;;;;5032777;28;20044;-72
2023/02/02 11:28:27;;;;;;;91.73;62.17;;;;;;;;;;5033851;28;20033;-72
2023/02/02 11:30:53;;;;;;;92.90;62.73;;;;;;;;;;5032164;28;20400;-72
2023/02/02 11:33:20;;;;;;;91.50;61.80;;;;;;;;;;5032686;28;20129;-72
2023/02/02 11:35:53;;;;;;;93.07;61.93;;;;;;;;;;5034039;28;20037;-72
2023/02/02 11:38:20;;;;;;;94.93;63.57;;;;;;;;;;5034193;28;20492;-72
2023/02/02 11:40:53;;;;;;;91.17;61.70;;;;;;;;;;5033752;28;20025;-72
2023/02/02 11:43:23;;;;;;;93.20;62.97;;;;;;;;;;5033606;28;20034;-72
2023/02/02 11:45:54;;;;;;;93.83;61.10;;;;;;;;;;5033881;28;20034;-72
2023/02/02 11:48:22;;;;;;;86.33;60.03;;;;;;;;;;5033620;28;20041;-72
2023/02/02 11:50:50;;;;;;;95.13;63.40;;;;;;;;;;5033336;28;20037;-72
2023/02/02 11:53:39;;;;;;;96.20;62.73;;;;;;;;;;5033414;28;20042;-72
2023/02/02 11:56:07;;;;;;;89.97;62.13;;;;;;;;;;5022605;28;20096;-72
2023/02/02 11:58:42;;;;;;;90.20;61.97;;;;;;;;;;5029718;28;20033;-72
2023/02/02 12:01:21;;;;;;;90.77;60.67;;;;;;;;;;5032429;28;20057;-72
2023/02/02 12:03:47;;;;;;;92.73;61.13;;;;;;;;;;5033231;28;20033;-72
2023/02/02 12:06:37;;;;;;;87.43;60.67;;;;;;;;;;5033704;28;20570;-72
2023/02/02 12:09:13;;;;;;;92.67;63.17;;;;;;;;;;5023359;28;20084;-72
2023/02/02 12:11:39;;;;;;;91.93;61.60;;;;;;;;;;5032025;28;20484;-72
2023/02/02 12:14:20;;;;;;;88.33;61.77;;;;;;;;;;5033295;28;20136;-72
2023/02/02 12:16:53;;;;;;;90.40;61.60;;;;;;;;;;5033409;28;20105;-72
2023/02/02 12:19:31;;;;;;;93.65;64.68;;;;;;;;;;5033283;28;20037;-72
2023/02/02 12:22:11;;;;;;;90.27;63.77;;;;;;;;;;5031868;28;20039;-72
2023/02/02 12:24:44;;;;;;;89.23;61.87;;;;;;;;;;5031872;28;20033;-72
2023/02/02 12:27:33;;;;;;;95.10;63.90;;;;;;;;;;5032739;28;20037;-72
2023/02/02 12:29:59;;;;;;;89.17;63.83;;;;;;;;;;5031900;28;20084;-71
2023/02/02 12:32:28;;;;;;;92.77;64.30;;;;;;;;;;5029828;28;20069;-71
2023/02/02 12:34:58;;;;;;;98.07;67.63;;;;;;;;;;5028736;28;20071;-72
2023/02/02 12:37:24;;;;;;;97.57;65.57;;;;;;;;;;5030004;28;20064;-72
2023/02/02 12:40:02;;;;;;;95.53;66.93;;;;;;;;;;5032180;28;20096;-71
2023/02/02 12:42:28;;;;;;;99.13;66.80;;;;;;;;;;5032775;28;20480;-72
2023/02/02 12:45:17;;;;;;;89.60;61.20;;;;;;;;;;5032645;28;20140;-72
2023/02/02 12:47:52;;;;;;;99.80;64.90;;;;;;;;;;5032639;28;20029;-71
2023/02/02 12:50:29;;;;;;;95.72;64.40;;;;;;;;;;5032612;28;20037;-72
2023/02/02 12:52:58;;;;;;;95.73;64.37;;;;;;;;;;5032235;28;20042;-72
2023/02/02 12:55:39;;;;;;;102.87;66.30;;;;;;;;;;5032719;28;20025;-72
2023/02/02 12:58:13;;;;;;;101.50;65.03;;;;;;;;;;5032994;28;20065;-72
2023/02/02 13:00:58;;;;;;;98.40;68.60;;;;;;;;;;5031120;28;20156;-72
2023/02/02 13:03:27;;;;;;;96.53;64.03;;;;;;;;;;5029763;28;20099;-72
2023/02/02 13:06:09;;;;;;;95.77;64.73;;;;;;;;;;5030191;28;20037;-72
2023/02/02 13:08:35;;;;;;;101.00;65.82;;;;;;;;;;5032468;28;20076;-72
2023/02/02 13:11:28;;;;;;;95.72;65.38;;;;;;;;;;5032013;28;20034;-71
2023/02/02 13:13:52;;;;;;;101.82;67.97;;;;;;;;;;5032109;28;20107;-72
2023/02/02 13:16:18;;;;;;;98.65;65.75;;;;;;;;;;5032208;28;20117;-72
2023/02/02 13:18:48;;;;;;;103.73;65.57;;;;;;;;;;5032468;28;20037;-72
2023/02/02 13:21:17;;;;;;;93.70;64.40;;;;;;;;;;5032505;28;20039;-72
2023/02/02 13:23:45;;;;;;;100.18;65.55;;;;;;;;;;5031809;28;20032;-72
2023/02/02 13:26:12;;;;;;;98.53;67.03;;;;;;;;;;5032188;28;20160;-72
2023/02/02 13:28:44;;;;;;;97.45;65.60;;;;;;;;;;5030168;28;20083;-71
2023/02/02 13:31:11;;;;;;;;;;;;;;;;;;5029763;28;20037;-71
2023/02/02 13:33:37;;;;;;;100.70;66.50;;;;;;;;;;5030496;28;19913;-72
2023/02/02 13:36:08;;;;;;;101.93;66.57;;;;;;;;;;5031405;28;20037;-72
2023/02/02 13:38:38;;;;;;;98.57;63.93;;;;;;;;;;5031633;28;20044;-72
2023/02/02 13:41:06;;;;;;;93.47;61.78;;;;;;;;;;5031414;28;20041;-73
2023/02/02 13:43:38;;;;;;;95.53;64.10;;;;;;;;;;5031675;28;20499;-72
2023/02/02 13:46:23;;;;;;;99.95;63.80;;;;;;;;;;5031943;28;20040;-73
2023/02/02 13:48:56;;;;;;;90.57;63.03;;;;;;;;;;5031761;28;20105;-72
2023/02/02 13:51:22;;;;;;;96.60;63.83;;;;;;;;;;5035801;28;20045;-73
2023/02/02 13:53:54;;;;;;;97.45;64.32;;;;;;;;;;5035839;28;20498;-73
2023/02/02 13:56:23;;;;;;;90.90;63.55;;;;;;;;;;5034240;28;20511;-73
2023/02/02 13:59:04;;;;;;;96.27;64.87;;;;;;;;;;5035285;28;20037;-72
2023/02/02 14:01:31;;;;;;;94.00;64.03;;;;;;;;;;5041739;28;20049;-72
2023/02/02 14:03:57;;;;;;;91.77;62.07;;;;;;;;;;5055102;28;20163;-71
2023/02/02 14:06:25;;;;;;;93.43;63.87;;;;;;;;;;5055253;28;20037;-73
2023/02/02 14:08:55;;;;;;;95.90;64.97;;;;;;;;;;5055406;28;20041;-72
2023/02/02 14:11:23;;;;;;;96.85;65.55;;;;;;;;;;5037070;28;20041;-72
2023/02/02 14:16:36;;;;;;;97.77;66.60;;;;;;;;;;5054218;28;20040;-72
2023/02/02 14:19:03;;;;;;;94.17;64.53;;;;;;;;;;5034886;28;20037;-72
2023/02/02 14:21:32;;;;;;;98.23;65.93;;;;;;;;;;5033389;28;20094;-73
2023/02/02 14:23:58;;;;;;;106.57;66.73;;;;;;;;;;5034416;28;20041;-73
2023/02/02 14:26:47;;;;;;;94.13;65.40;;;;;;;;;;5035523;28;20068;-72
2023/02/02 14:29:31;;;;;;;95.03;65.57;;;;;;;;;;5024627;28;20092;-73
2023/02/02 14:32:05;;;;;;;98.10;65.10;;;;;;;;;;5033239;28;20108;-73
2023/02/02 14:34:41;;;;;;;98.23;66.27;;;;;;;;;;5034878;28;20120;-73
2023/02/02 14:37:13;;;;;;;98.30;66.50;;;;;;;;;;5035069;28;20064;-73
2023/02/02 14:39:58;;;;;;;104.35;65.82;;;;;;;;;;5033466;28;20500;-73